createdAt,value
2019-06-10T00:01:35.794Z,6.83
2019-06-10T00:04:12.466Z,6.17
2019-06-10T00:06:45.967Z,6.85
2019-06-10T00:14:28.033Z,7.15
2019-06-10T00:19:36.917Z,8.63
2019-06-10T00:24:45.987Z,5.78
2019-06-10T00:29:55.259Z,8.95
2019-06-10T00:35:04.630Z,8.25
2019-06-10T00:37:39.021Z,6.60
2019-06-10T00:40:14.270Z,7.55
2019-06-10T00:42:50.612Z,6.87
2019-06-10T00:45:24.397Z,8.88
2019-06-10T00:50:33.347Z,6.05
2019-06-10T00:55:42.009Z,7.05
2019-06-10T00:58:16.149Z,7.62
2019-06-10T01:03:24.879Z,8.25
2019-06-10T01:06:01.126Z,7.58
2019-06-10T01:08:34.873Z,6.72
2019-06-10T01:13:43.699Z,7.58
2019-06-10T01:16:17.724Z,7.62
2019-06-10T01:21:26.860Z,7.22
2019-06-10T01:24:01.256Z,7.42
2019-06-10T01:26:35.191Z,8.48
2019-06-10T01:29:10.288Z,6.97
2019-06-10T01:31:44.839Z,13.38
2019-06-10T01:34:18.774Z,7.37
2019-06-10T01:36:52.793Z,14.13
2019-06-10T01:42:00.654Z,7.97
2019-06-10T01:44:34.687Z,7.95
2019-06-10T01:49:42.831Z,10.98
2019-06-10T01:52:18.219Z,10.58
2019-06-10T01:54:52.419Z,9.58
2019-06-10T01:57:26.350Z,10.30
2019-06-10T02:00:00.960Z,8.58
2019-06-10T02:02:36.342Z,11.08
2019-06-10T02:05:13.269Z,10.00
2019-06-10T02:07:47.515Z,10.18
2019-06-10T02:10:22.991Z,9.38
2019-06-10T02:12:57.217Z,7.25
2019-06-10T02:15:31.553Z,8.63
2019-06-10T02:18:05.854Z,8.88
2019-06-10T02:20:41.252Z,12.37
2019-06-10T02:23:16.017Z,12.73
2019-06-10T02:25:51.302Z,11.25
2019-06-10T02:28:25.311Z,7.70
2019-06-10T02:31:03.359Z,10.40
2019-06-10T02:33:36.655Z,10.95
2019-06-10T02:36:15.946Z,13.20
2019-06-10T02:38:46.674Z,10.25
2019-06-10T02:41:29.613Z,11.50
2019-06-10T02:43:56.387Z,11.90
2019-06-10T02:46:34.895Z,12.47
2019-06-10T02:49:23.235Z,11.28
2019-06-10T02:51:43.635Z,14.23
2019-06-10T02:54:20.330Z,13.20
2019-06-10T02:56:54.060Z,10.08
2019-06-10T02:59:31.644Z,10.40
2019-06-10T03:02:04.253Z,11.08
2019-06-10T03:04:38.295Z,9.53
2019-06-10T03:12:23.015Z,12.35
2019-06-10T03:14:56.246Z,10.88
2019-06-10T03:22:39.430Z,11.95
2019-06-10T03:27:47.332Z,8.30
2019-06-10T03:35:29.996Z,9.15
2019-06-10T03:38:04.327Z,12.58
2019-06-10T03:40:38.259Z,12.33
2019-06-10T03:43:12.296Z,10.65
2019-06-10T03:48:21.738Z,11.43
2019-06-10T03:50:55.621Z,8.88
2019-06-10T03:53:29.714Z,10.32
2019-06-10T03:56:03.873Z,10.58
2019-06-10T04:01:12.327Z,8.85
2019-06-10T04:03:46.578Z,6.97
2019-06-10T04:08:53.601Z,9.90
2019-06-10T04:11:28.774Z,11.20
2019-06-10T04:14:03.369Z,8.43
2019-06-10T04:19:12.926Z,9.10
2019-06-10T04:21:46.304Z,10.63
2019-06-10T04:24:22.704Z,9.85
2019-06-10T04:26:56.233Z,8.30
2019-06-10T04:29:32.918Z,8.65
2019-06-10T04:32:07.110Z,13.03
2019-06-10T04:37:15.911Z,11.40
2019-06-10T04:39:49.947Z,9.78
2019-06-10T04:44:58.712Z,13.03
2019-06-10T04:47:33.250Z,12.50
2019-06-10T04:50:20.816Z,13.88
2019-06-10T04:52:43.578Z,11.97
2019-06-10T04:57:52.116Z,11.33
2019-06-10T05:00:27.649Z,10.23
2019-06-10T05:03:02.896Z,9.20
2019-06-10T05:05:36.970Z,9.15
2019-06-10T05:08:13.155Z,11.15
2019-06-10T05:10:46.877Z,14.45
2019-06-10T05:18:30.225Z,6.25
2019-06-10T05:21:04.344Z,9.05
2019-06-10T05:23:38.287Z,11.28
2019-06-10T05:26:13.286Z,14.87
2019-06-10T05:28:48.197Z,12.28
2019-06-10T05:31:25.223Z,9.83
2019-06-10T05:33:57.961Z,9.45
2019-06-10T05:36:34.633Z,10.23
2019-06-10T05:39:08.321Z,10.68
2019-06-10T05:41:43.354Z,10.38
2019-06-10T05:44:17.489Z,19.15
2019-06-10T05:46:52.834Z,10.72
2019-06-10T05:49:27.790Z,11.60
2019-06-10T05:52:02.952Z,11.93
2019-06-10T05:54:36.962Z,13.35
2019-06-10T05:57:12.033Z,13.65
2019-06-10T05:59:46.118Z,13.95
2019-06-10T06:02:22.116Z,9.70
2019-06-10T06:04:55.777Z,10.15
2019-06-10T06:10:03.823Z,13.38
2019-06-10T06:12:38.085Z,10.40
2019-06-10T06:15:13.002Z,13.28
2019-06-10T06:17:47.175Z,14.87
2019-06-10T06:22:54.289Z,13.00
2019-06-10T06:25:30.463Z,9.98
2019-06-10T06:28:03.928Z,14.73
2019-06-10T06:33:13.576Z,9.55
2019-06-10T06:35:47.493Z,11.05
2019-06-10T06:38:22.424Z,7.42
2019-06-10T06:40:56.701Z,9.75
2019-06-10T06:43:32.840Z,9.30
2019-06-10T06:46:06.296Z,10.20
2019-06-10T06:51:15.021Z,16.07
2019-06-10T06:58:57.418Z,8.93
2019-06-10T07:01:34.569Z,7.80
2019-06-10T07:04:07.186Z,5.67
2019-06-10T07:06:43.248Z,6.97
2019-06-10T07:09:18.829Z,7.72
2019-06-10T07:11:54.395Z,9.70
2019-06-10T07:14:34.087Z,9.38
2019-06-10T07:17:06.278Z,7.72
2019-06-10T07:19:42.094Z,7.37
2019-06-10T07:22:16.461Z,6.53
2019-06-10T07:24:52.816Z,7.62
2019-06-10T07:27:26.293Z,7.50
2019-06-10T07:30:00.373Z,7.87
2019-06-10T07:32:37.336Z,6.72
2019-06-10T07:35:12.840Z,5.67
2019-06-10T07:37:46.267Z,6.60
2019-06-10T07:42:55.462Z,7.15
2019-06-10T07:48:02.969Z,7.90
2019-06-10T07:50:37.801Z,7.65
2019-06-10T07:53:12.832Z,8.88
2019-06-10T07:55:46.852Z,7.08
2019-06-10T08:03:28.940Z,9.13
2019-06-10T08:11:13.408Z,8.35
2019-06-10T08:13:48.063Z,9.20
2019-06-10T08:16:23.643Z,10.03
2019-06-10T08:19:22.087Z,8.83
2019-06-10T08:21:33.855Z,6.42
2019-06-10T08:24:07.934Z,11.03
2019-06-10T08:29:17.251Z,7.03
2019-06-10T08:31:53.261Z,5.50
2019-06-10T08:34:26.882Z,10.20
2019-06-10T08:37:04.245Z,7.25
2019-06-10T08:39:36.397Z,6.33
2019-06-10T08:42:12.387Z,7.53
2019-06-10T08:44:48.437Z,8.40
2019-06-10T08:47:22.928Z,7.37
2019-06-10T08:49:56.941Z,5.42
2019-06-10T08:55:06.970Z,7.30
2019-06-10T08:57:45.255Z,5.40
2019-06-10T09:00:18.753Z,5.55
2019-06-10T09:02:53.900Z,6.30
2019-06-10T09:05:28.213Z,7.85
2019-06-10T09:08:03.318Z,5.65
2019-06-10T09:10:39.499Z,6.37
2019-06-10T09:13:13.505Z,7.22
2019-06-10T09:16:07.147Z,6.80
2019-06-10T09:18:23.438Z,6.97
2019-06-10T09:20:57.498Z,6.33
2019-06-10T09:23:33.142Z,7.08
2019-06-10T09:26:07.366Z,6.55
2019-06-10T09:31:16.159Z,5.72
2019-06-10T09:33:54.377Z,7.28
2019-06-10T09:36:26.122Z,8.48
2019-06-10T09:39:00.209Z,9.73
2019-06-10T09:41:41.064Z,3.58
2019-06-10T09:44:12.693Z,7.25
2019-06-10T09:46:50.542Z,9.53
2019-06-10T09:49:26.128Z,6.85
2019-06-10T09:52:03.127Z,4.92
2019-06-10T09:54:57.094Z,6.28
2019-06-10T09:57:32.197Z,4.62
2019-06-10T10:00:12.557Z,5.30
2019-06-10T10:02:50.450Z,6.10
2019-06-10T10:05:23.381Z,4.05
2019-06-10T10:07:57.784Z,8.35
2019-06-10T10:10:37.281Z,5.28
2019-06-10T10:13:13.052Z,6.28
2019-06-10T10:15:48.134Z,6.22
2019-06-10T10:18:23.598Z,7.95
2019-06-10T10:21:00.229Z,6.00
2019-06-10T10:23:50.337Z,5.67
2019-06-10T10:26:09.427Z,6.00
2019-06-10T10:28:44.673Z,4.87
2019-06-10T10:31:19.510Z,8.50
2019-06-10T10:33:53.765Z,6.45
2019-06-10T10:36:27.819Z,8.73
2019-06-10T10:39:02.433Z,5.45
2019-06-10T10:41:36.943Z,5.83
2019-06-10T10:44:31.982Z,6.72
2019-06-10T10:47:06.171Z,9.33
2019-06-10T10:49:40.668Z,3.67
2019-06-10T10:52:14.793Z,5.42
2019-06-10T10:54:49.424Z,7.42
2019-06-10T10:57:23.745Z,4.45
2019-06-10T10:59:57.816Z,6.78
2019-06-10T11:02:32.248Z,4.92
2019-06-10T11:05:09.241Z,4.20
2019-06-10T11:07:44.488Z,4.12
2019-06-10T11:10:19.419Z,4.80
2019-06-10T11:12:55.376Z,5.53
2019-06-10T11:15:32.793Z,4.50
2019-06-10T11:18:07.717Z,7.42
2019-06-10T11:20:41.857Z,5.67
2019-06-10T11:23:16.111Z,9.60
2019-06-10T11:25:53.289Z,9.15
2019-06-10T11:28:26.185Z,4.10
2019-06-10T11:31:00.438Z,5.00
2019-06-10T11:33:34.951Z,7.05
2019-06-10T11:36:09.036Z,6.80
2019-06-10T11:38:43.039Z,5.87
2019-06-10T11:43:53.705Z,6.85
2019-06-10T11:46:26.841Z,11.60
2019-06-10T11:49:03.932Z,6.33
2019-06-10T11:51:37.361Z,8.60
2019-06-10T11:54:12.835Z,9.08
2019-06-10T11:56:47.728Z,9.75
2019-06-10T11:59:21.998Z,4.80
2019-06-10T12:01:59.721Z,6.08
2019-06-10T12:04:31.870Z,7.15
2019-06-10T12:07:05.853Z,6.65
2019-06-10T12:12:13.625Z,7.12
2019-06-10T12:14:49.299Z,4.53
2019-06-10T12:17:40.477Z,4.15
2019-06-10T12:20:02.583Z,7.00
2019-06-10T12:22:35.215Z,5.20
2019-06-10T12:25:30.372Z,8.43
2019-06-10T12:27:45.887Z,7.50
2019-06-10T12:30:22.238Z,4.08
2019-06-10T12:32:59.056Z,5.53
2019-06-10T12:35:33.319Z,4.62
2019-06-10T12:38:07.339Z,9.38
2019-06-10T12:43:16.028Z,5.42
2019-06-10T12:48:23.321Z,5.55
2019-06-10T12:50:58.945Z,6.35
2019-06-10T12:53:33.683Z,6.47
2019-06-10T12:56:10.976Z,5.83
2019-06-10T12:58:43.941Z,8.13
2019-06-10T13:01:18.025Z,7.00
2019-06-10T13:03:53.614Z,6.80
2019-06-10T13:06:28.279Z,7.08
2019-06-10T13:09:06.348Z,9.70
2019-06-10T13:11:43.148Z,4.47
2019-06-10T13:14:18.380Z,7.58
2019-06-10T13:16:52.749Z,5.87
2019-06-10T13:19:27.099Z,7.45
2019-06-10T13:22:04.535Z,9.98
2019-06-10T13:24:37.083Z,9.13
2019-06-10T13:29:45.429Z,7.85
2019-06-10T13:32:19.663Z,7.95
2019-06-10T13:34:53.571Z,6.67
2019-06-10T13:37:27.856Z,5.70
2019-06-10T13:40:04.579Z,5.97
2019-06-10T13:42:37.953Z,6.35
2019-06-10T13:45:12.905Z,8.48
2019-06-10T13:47:47.319Z,5.95
2019-06-10T13:50:22.099Z,8.70
2019-06-10T13:52:58.696Z,5.25
2019-06-10T13:55:32.978Z,9.95
2019-06-10T13:58:09.600Z,9.80
2019-06-10T14:00:46.785Z,8.13
2019-06-10T14:03:18.847Z,6.80
2019-06-10T14:05:58.463Z,7.75
2019-06-10T14:08:29.171Z,9.83
2019-06-10T14:11:07.294Z,10.03
2019-06-10T14:13:40.245Z,7.03
2019-06-10T14:16:15.179Z,9.83
2019-06-10T14:18:49.268Z,9.70
2019-06-10T14:21:23.582Z,12.80
2019-06-10T14:23:57.903Z,9.08
2019-06-10T14:26:40.592Z,11.53
2019-06-10T14:29:09.240Z,10.93
2019-06-10T14:31:44.999Z,7.50
2019-06-10T14:34:22.310Z,7.72
2019-06-10T14:36:55.158Z,6.17
2019-06-10T14:42:03.801Z,9.63
2019-06-10T14:44:38.419Z,8.80
2019-06-10T14:47:13.959Z,9.88
2019-06-10T14:49:48.405Z,12.05
2019-06-10T14:52:22.772Z,9.85
2019-06-10T14:54:57.673Z,8.73
2019-06-10T14:57:33.454Z,9.28
2019-06-10T15:00:09.804Z,11.78
2019-06-10T15:02:44.047Z,7.58
2019-06-10T15:05:17.858Z,11.15
2019-06-10T15:07:52.834Z,9.35
2019-06-10T15:10:26.913Z,11.43
2019-06-10T15:18:09.325Z,7.12
2019-06-10T15:20:43.583Z,8.13
2019-06-10T15:23:19.127Z,11.78
2019-06-10T15:25:56.708Z,16.70
2019-06-10T15:28:28.764Z,12.82
2019-06-10T15:31:03.122Z,8.10
2019-06-10T15:33:37.211Z,9.25
2019-06-10T15:38:45.230Z,8.30
2019-06-10T15:43:54.123Z,12.30
2019-06-10T15:46:28.065Z,9.65
2019-06-10T15:54:10.680Z,8.95
2019-06-10T15:56:52.696Z,13.22
2019-06-10T15:59:21.432Z,5.00
2019-06-10T16:01:55.355Z,10.28
2019-06-10T16:04:29.991Z,9.13
2019-06-10T16:07:04.999Z,10.82
2019-06-10T16:09:39.108Z,11.88
2019-06-10T16:12:15.003Z,4.95
2019-06-10T16:14:48.897Z,7.25
2019-06-10T16:17:23.329Z,20.43
2019-06-10T16:19:57.545Z,6.97
2019-06-10T16:22:32.413Z,6.70
2019-06-10T16:25:07.617Z,9.93
2019-06-10T16:27:49.553Z,11.97
2019-06-10T16:30:18.215Z,10.50
2019-06-10T16:32:53.101Z,5.95
2019-06-10T16:35:27.223Z,8.70
2019-06-10T16:38:01.117Z,8.78
2019-06-10T16:43:08.183Z,11.00
2019-06-10T16:48:17.128Z,6.20
2019-06-10T16:50:54.016Z,6.10
2019-06-10T16:53:30.536Z,11.80
2019-06-10T16:56:03.339Z,7.62
2019-06-10T16:58:37.639Z,5.67
2019-06-10T17:03:46.632Z,7.72
2019-06-10T17:08:55.391Z,14.45
2019-06-10T17:14:04.905Z,8.50
2019-06-10T17:16:40.700Z,10.82
2019-06-10T17:19:14.725Z,10.40
2019-06-10T17:24:25.230Z,7.42
2019-06-10T17:26:58.069Z,12.20
2019-06-10T17:29:33.469Z,15.30
2019-06-10T17:32:07.523Z,10.72
2019-06-10T17:37:16.533Z,10.43
2019-06-10T17:39:52.910Z,10.20
2019-06-10T17:42:30.593Z,12.03
2019-06-10T17:45:02.659Z,10.68
2019-06-10T17:47:37.043Z,11.95
2019-06-10T17:50:12.651Z,10.70
2019-06-10T17:52:46.976Z,11.65
2019-06-10T17:55:25.716Z,7.30
2019-06-10T17:57:57.415Z,8.23
2019-06-10T18:03:06.375Z,9.35
2019-06-10T18:05:42.524Z,12.20
2019-06-10T18:08:17.874Z,9.13
2019-06-10T18:10:53.626Z,7.60
2019-06-10T18:13:28.091Z,7.40
2019-06-10T18:16:02.888Z,6.87
2019-06-10T18:18:37.407Z,7.95
2019-06-10T18:21:12.735Z,7.37
2019-06-10T18:23:46.888Z,8.08
2019-06-10T18:29:04.537Z,10.13
2019-06-10T18:31:32.405Z,8.23
2019-06-10T18:34:05.590Z,12.13
2019-06-10T18:36:42.568Z,8.88
2019-06-10T18:39:15.518Z,9.03
2019-06-10T18:44:26.322Z,12.43
2019-06-10T18:46:58.844Z,10.60
2019-06-10T18:52:07.863Z,15.50
2019-06-10T18:57:16.635Z,13.00
2019-06-10T19:04:58.808Z,9.10
2019-06-10T19:07:34.916Z,9.55
2019-06-10T19:10:10.067Z,11.38
2019-06-10T19:12:44.368Z,11.15
2019-06-10T19:15:18.674Z,11.00
2019-06-10T19:17:53.636Z,10.70
2019-06-10T19:20:27.952Z,9.20
2019-06-10T19:23:02.604Z,9.23
2019-06-10T19:25:38.824Z,11.97
2019-06-10T19:28:12.904Z,10.80
2019-06-10T19:33:20.273Z,12.90
2019-06-10T19:38:27.945Z,10.58
2019-06-10T19:41:02.894Z,15.65
2019-06-10T19:43:39.135Z,12.63
2019-06-10T19:46:12.940Z,12.73
2019-06-10T19:48:56.977Z,14.95
2019-06-10T19:51:23.395Z,11.70
2019-06-10T19:53:58.542Z,13.10
2019-06-10T19:56:33.054Z,11.80
2019-06-10T19:59:07.316Z,20.27
2019-06-10T20:01:45.915Z,17.60
2019-06-10T20:04:25.461Z,21.02
2019-06-10T20:07:06.366Z,28.45
2019-06-10T20:09:46.139Z,23.45
2019-06-10T20:12:19.797Z,28.90
2019-06-10T20:14:57.462Z,20.27
2019-06-10T20:17:35.514Z,24.65
2019-06-10T20:20:22.627Z,30.08
2019-06-10T20:22:57.640Z,16.20
2019-06-10T20:25:32.905Z,16.62
2019-06-10T20:28:07.260Z,18.30
2019-06-10T20:30:43.804Z,17.55
2019-06-10T20:33:18.488Z,21.77
2019-06-10T20:35:52.456Z,17.42
2019-06-10T20:38:26.396Z,13.32
2019-06-10T20:43:35.433Z,14.35
2019-06-10T20:48:45.481Z,13.78
2019-06-10T20:51:17.961Z,19.10
2019-06-10T20:53:53.327Z,22.95
2019-06-10T20:56:27.343Z,28.10
2019-06-10T20:59:03.029Z,20.50
2019-06-10T21:01:36.932Z,22.40
2019-06-10T21:04:13.030Z,21.52
2019-06-10T21:06:49.550Z,18.37
2019-06-10T21:09:25.755Z,24.52
2019-06-10T21:12:01.941Z,17.62
2019-06-10T21:14:35.285Z,18.05
2019-06-10T21:17:09.132Z,22.35
2019-06-10T21:19:44.926Z,16.32
2019-06-10T21:22:18.805Z,14.30
2019-06-10T21:24:53.608Z,14.38
2019-06-10T21:27:27.777Z,12.73
2019-06-10T21:30:03.130Z,14.25
2019-06-10T21:32:37.448Z,12.85
2019-06-10T21:37:47.162Z,14.60
2019-06-10T21:40:21.715Z,16.55
2019-06-10T21:42:55.645Z,11.83
2019-06-10T21:45:29.470Z,52.88
2019-06-10T21:48:03.306Z,14.85
2019-06-10T21:50:37.134Z,14.95
2019-06-10T21:53:13.028Z,17.90
2019-06-10T21:55:46.705Z,21.75
2019-06-10T21:58:22.553Z,17.25
2019-06-10T22:01:09.816Z,17.32
2019-06-10T22:03:32.334Z,18.15
2019-06-10T22:08:42.311Z,111.40
2019-06-10T22:11:15.343Z,44.83
2019-06-10T22:13:50.790Z,17.52
2019-06-10T22:16:24.869Z,16.80
2019-06-10T22:18:58.728Z,23.75
2019-06-10T22:21:32.749Z,22.95
2019-06-10T22:26:39.770Z,25.77
2019-06-10T22:29:13.619Z,27.73
2019-06-10T22:31:47.420Z,19.80
2019-06-10T22:34:22.878Z,21.30
2019-06-10T22:36:57.625Z,31.25
2019-06-10T22:39:32.552Z,25.05
2019-06-10T22:42:06.563Z,23.38
2019-06-10T22:44:42.359Z,20.43
2019-06-10T22:47:16.107Z,22.48
2019-06-10T22:49:50.218Z,28.17
2019-06-10T22:52:23.999Z,24.92
2019-06-10T22:54:58.694Z,21.23
2019-06-10T22:57:32.929Z,23.10
2019-06-10T23:02:43.885Z,29.42
2019-06-10T23:05:18.200Z,27.67
2019-06-10T23:07:53.239Z,25.08
2019-06-10T23:10:27.616Z,29.72
2019-06-10T23:13:03.069Z,28.57
2019-06-10T23:15:37.118Z,25.72
2019-06-10T23:18:12.809Z,34.48
2019-06-10T23:20:46.489Z,23.45
2019-06-10T23:23:23.106Z,22.42
2019-06-10T23:25:56.063Z,28.00
2019-06-10T23:28:29.889Z,23.95
2019-06-10T23:31:05.297Z,28.30
2019-06-10T23:33:39.529Z,24.75
2019-06-10T23:36:13.638Z,27.77
2019-06-10T23:41:22.367Z,24.82
2019-06-10T23:43:57.150Z,22.73
2019-06-10T23:46:31.983Z,25.43
2019-06-10T23:49:06.065Z,26.10
2019-06-10T23:51:42.181Z,23.35
2019-06-10T23:54:15.523Z,23.67
2019-06-10T23:56:49.355Z,22.67
2019-06-10T23:59:23.180Z,20.75
